Nearby METAR Reports

 

KBAX - Bad Axe, Michigan, USA
Distance from station: ESE 22mi, 35km
Updated: Fri, 23-Jun-2017 11:17am EDT
Light drizzle, Overcast
Light drizzle, Overcast
 Wind from calm
Wind: Calm
Temperature: 68°F , 20°C
Dew Point: 66°F , 19°C
Humidity: 94%
Barometer: 29.59 inHg , 1002 hPa
Summary: Light Drizzle
Clouds: Overcast
Visibility: 10 miles , 16 km
Cloud details: Overcast 900 ft
2017/06/23 15:17 KBAX 231517Z AUTO 00000KT 10SM -DZ OVC009 20/19 A2959 RMK AO2 T01980190
KFNT - Flint, Michigan, USA
Distance from station: SSW 68mi, 109km
Updated: Fri, 23-Jun-2017 11:06am EDT
Mostly cloudy
Mostly cloudy
 Wind from WSW
Wind: WSW 7 mph , 11 km/h
Temperature: 70°F , 21°C
Dew Point: 66°F , 19°C
Humidity: 88%
Barometer: 29.61 inHg , 1002.7 hPa
Clouds: Mostly cloudy
Visibility: 10 miles , 16 km
Cloud details: Few Clouds 700 ft
Few Clouds 8000 ft
Mostly cloudy 10000 ft
2017/06/23 15:06 KFNT 231506Z 24006KT 10SM FEW007 FEW080 BKN100 21/19 A2961 RMK AO2 T02110194
KMBS - Saginaw, Michigan, USA
Distance from station: SW 44mi, 70km
Updated: Fri, 23-Jun-2017 10:53am EDT
Overcast
Overcast
 Wind from WSW
Wind: WSW 7 mph , 11 km/h
Temperature: 68°F , 20°C
Dew Point: 68°F , 20°C
Humidity: 100%
Barometer: 29.60 inHg , 1002.4 hPa
Clouds: Overcast
Visibility: 10 miles , 16 km
Cloud details: Overcast 500 ft
2017/06/23 14:53 KMBS 231453Z 25006KT 10SM OVC005 20/20 A2960 RMK AO2 SLP021 60004 T02000200 58000
 
KDTW - Detroit/Wayne, Michigan, USA
Distance from station: SSE 117mi, 188km
Updated: Fri, 23-Jun-2017 10:53am EDT
Mostly cloudy
Mostly cloudy
 Wind from SSW
Wind: SSW 3 mph , 6 km/h
Temperature: 73°F , 23°C
Dew Point: 68°F , 20°C
Humidity: 83%
Barometer: 29.61 inHg , 1002.7 hPa
Clouds: Mostly cloudy
Visibility: 3 miles , 5 km
Cloud details: Partly cloudy 1200 ft
Mostly cloudy 3000 ft
Mostly cloudy 5000 ft
2017/06/23 14:53 KDTW 231453Z 20003KT 3SM SCT012 BKN030 BKN050 23/20 A2961 RMK AO2 SFC VIS 10 RAB07E47 PRESFR SLP024 P0009 60009 T02280200 58007
KP58 - Port Hope, Michigan, USA
Distance from station: ENE 30mi, 48km
Updated: Fri, 23-Jun-2017 10:51am EDT

 Wind from calm
Wind: Calm
Temperature: 70°F , 21°C
Dew Point: 66°F , 19°C
Humidity: 88%
Barometer: 29.58 inHg , 1001.7 hPa
2017/06/23 14:51 KP58 231451Z AUTO 00000KT 21/19 A2958 RMK AO1 SLP008 60010 T02060189 58000
KCFS - Caro/Tuscola, Michigan, USA
Distance from station: S 31mi, 50km
Updated: Fri, 23-Jun-2017 11:18am EDT
Overcast
Overcast
 Wind from SW
Wind: SW 5 mph , 7 km/h
Temperature: 70°F , 21°C
Dew Point: 68°F , 20°C
Humidity: 94%
Barometer: 29.59 inHg , 1002 hPa
Clouds: Overcast
Visibility: 10 miles , 16 km
Cloud details: Mostly cloudy 800 ft
Overcast 1400 ft
2017/06/23 15:18 KCFS 231518Z AUTO 22004KT 10SM BKN008 OVC014 21/20 A2959 RMK AO2
 
KPHN - Port Huron, Michigan, USA
Distance from station: SSE 81mi, 131km
Updated: Fri, 23-Jun-2017 11:16am EDT
Light rain, Overcast
Light rain, Overcast
 Wind from ESE
Wind: ESE 9 mph , 15 km/h
Temperature: 68°F , 20°C
Dew Point: 66°F , 19°C
Humidity: 94%
Barometer: 29.58 inHg , 1001.7 hPa
Summary: Light rain
Clouds: Overcast
Visibility: 10 miles , 16 km
Cloud details: Partly cloudy 400 ft
Mostly cloudy 3100 ft
Overcast 11000 ft
2017/06/23 15:16 KPHN 231516Z AUTO 11008KT 10SM -RA SCT004 BKN031 OVC110 20/19 A2958 RMK AO2
KPTK - Pontiac, Michigan, USA
Distance from station: S 86mi, 138km
Updated: Fri, 23-Jun-2017 10:53am EDT
Overcast
Overcast
 Wind from E
Wind: E 7 mph , 11 km/h
Temperature: 70°F , 21°C
Dew Point: 70°F , 21°C
Humidity: 100%
Barometer: 29.60 inHg , 1002.4 hPa
Clouds: Overcast
Visibility: 10 miles , 16 km
Cloud details: Few Clouds 900 ft
Partly cloudy 6500 ft
Overcast 9000 ft
2017/06/23 14:53 KPTK 231453Z 09006KT 10SM FEW009 SCT065 OVC090 21/21 A2960 RMK AO2 WSHFT 1342 RAB1354E48 SLP017 P0002 60016 T02110206 58002 $
KMTC - Selfridge Angb, Michigan, USA
Distance from station: SSE 94mi, 151km
Updated: Fri, 23-Jun-2017 11:16am EDT
Light rain, Overcast
Light rain, Overcast
 Wind from E
Wind: E 12 mph , 19 km/h
Temperature: 68°F , 20°C
Dew Point: 68°F , 20°C
Humidity: 100%
Barometer: 29.58 inHg , 1001.7 hPa
Summary: Light rain
Clouds: Overcast
Visibility: 7 miles , 11 km
Cloud details: Partly cloudy 700 ft
Mostly cloudy 1500 ft
Mostly cloudy 3800 ft
Overcast 10000 ft
2017/06/23 15:16 KMTC 231516Z 09010KT 7SM -RA SCT007 BKN015 BKN038 OVC100 20/20 A2958 RMK AO2A